Time;durP1;ratioP1;P1;durP2;ratioP2;P2;SDS_P1;SDS_P2;PMS_P1;PMS_P2;Temp;Humidity;BMP_temperature;BMP_pressure;BME280_temperature;BME280_humidity;BME280_pressure;Samples;Min_cycle;Max_cycle;Signal;HPM_P1;HPM_P2
2023/12/07 00:01:07;;;;;;;13.60;7.70;;;;;;;;;;4989973;28;20201;-80
2023/12/07 00:03:33;;;;;;;18.88;8.52;;;;;;;;;;4992383;28;20030;-80
2023/12/07 00:05:59;;;;;;;19.42;8.65;;;;;;;;;;4989396;28;20492;-79
2023/12/07 00:08:24;;;;;;;21.42;8.05;;;;;;;;;;4987832;28;20042;-82
2023/12/07 00:10:50;;;;;;;20.15;8.90;;;;;;;;;;4987034;28;20042;-80
2023/12/07 00:13:16;;;;;;;20.85;8.63;;;;;;;;;;4992063;28;20026;-81
2023/12/07 00:15:42;;;;;;;18.27;8.50;;;;;;;;;;4988028;28;20125;-78
2023/12/07 00:18:08;;;;;;;18.95;7.97;;;;;;;;;;4986066;28;20030;-80
2023/12/07 00:20:34;;;;;;;18.83;8.70;;;;;;;;;;4996589;28;20034;-83
2023/12/07 00:23:00;;;;;;;19.42;8.63;;;;;;;;;;5004298;28;20042;-82
2023/12/07 00:25:26;;;;;;;22.52;8.55;;;;;;;;;;4995452;28;20030;-83
2023/12/07 00:27:52;;;;;;;25.25;9.30;;;;;;;;;;4992565;28;20053;-81
2023/12/07 00:30:18;;;;;;;16.00;8.27;;;;;;;;;;4996844;28;20045;-80
2023/12/07 00:32:46;;;;;;;19.17;8.93;;;;;;;;;;4994737;28;20022;-81
2023/12/07 00:35:12;;;;;;;21.15;10.50;;;;;;;;;;4996288;28;20031;-81
2023/12/07 00:37:37;;;;;;;18.30;8.27;;;;;;;;;;4988155;28;20058;-81
2023/12/07 00:40:04;;;;;;;19.60;9.43;;;;;;;;;;4990384;28;20030;-81
2023/12/07 00:42:30;;;;;;;16.58;8.50;;;;;;;;;;4991867;28;20030;-80
2023/12/07 00:44:56;;;;;;;17.30;8.55;;;;;;;;;;4991896;28;20033;-79
2023/12/07 00:47:22;;;;;;;20.70;9.73;;;;;;;;;;4986849;28;20023;-80
2023/12/07 00:49:48;;;;;;;18.90;9.10;;;;;;;;;;4985454;28;20452;-80
2023/12/07 00:52:14;;;;;;;15.07;7.57;;;;;;;;;;4988281;28;20093;-81
2023/12/07 00:54:40;;;;;;;14.05;8.35;;;;;;;;;;4986852;28;20041;-80
2023/12/07 00:57:06;;;;;;;16.50;7.60;;;;;;;;;;4983722;28;20076;-80
2023/12/07 00:59:36;;;;;;;19.45;8.68;;;;;;;;;;4986872;28;20030;-80
2023/12/07 01:02:02;;;;;;;19.13;7.97;;;;;;;;;;4989877;28;20037;-79
2023/12/07 01:04:29;;;;;;;18.85;8.25;;;;;;;;;;4980939;28;20389;-80
2023/12/07 01:06:55;;;;;;;21.52;9.10;;;;;;;;;;4988300;28;20022;-80
2023/12/07 01:09:21;;;;;;;18.00;8.95;;;;;;;;;;4985273;28;20025;-79
2023/12/07 01:11:47;;;;;;;20.80;9.60;;;;;;;;;;4985072;28;20034;-82
2023/12/07 01:14:13;;;;;;;17.73;8.18;;;;;;;;;;4985535;28;20022;-79
2023/12/07 01:16:39;;;;;;;16.20;6.72;;;;;;;;;;4989631;28;20050;-80
2023/12/07 01:19:06;;;;;;;20.67;9.05;;;;;;;;;;4989988;28;20027;-79
2023/12/07 01:21:33;;;;;;;18.90;9.35;;;;;;;;;;4993440;28;20038;-79
2023/12/07 01:23:58;;;;;;;18.05;9.48;;;;;;;;;;4990910;28;20054;-80
2023/12/07 01:26:24;;;;;;;21.58;9.77;;;;;;;;;;4991530;28;20064;-79
2023/12/07 01:28:50;;;;;;;21.35;10.77;;;;;;;;;;4990138;28;20041;-80
2023/12/07 01:31:17;;;;;;;16.80;8.90;;;;;;;;;;4992446;28;20436;-81
2023/12/07 01:33:43;;;;;;;20.17;7.93;;;;;;;;;;4991033;28;20030;-81
2023/12/07 01:36:09;;;;;;;20.08;9.13;;;;;;;;;;4991597;28;20050;-80
2023/12/07 01:38:35;;;;;;;17.85;8.27;;;;;;;;;;4993263;28;20129;-81
2023/12/07 01:41:01;;;;;;;16.60;9.23;;;;;;;;;;4990603;28;20122;-80
2023/12/07 01:43:27;;;;;;;18.33;8.98;;;;;;;;;;4988804;28;20113;-82
2023/12/07 01:45:54;;;;;;;20.30;8.13;;;;;;;;;;4989585;28;20026;-81
2023/12/07 01:48:21;;;;;;;19.88;9.52;;;;;;;;;;4991942;28;20019;-81
2023/12/07 01:50:47;;;;;;;17.88;8.93;;;;;;;;;;4990739;28;20038;-79
2023/12/07 01:53:14;;;;;;;25.00;10.18;;;2.10;99.90;;;;;;4989587;28;20022;-80
2023/12/07 01:55:40;;;;;;;18.13;9.13;;;;;;;;;;4990746;28;20030;-80
2023/12/07 01:58:06;;;;;;;18.65;8.23;;;;;;;;;;4992087;28;20026;-80
2023/12/07 02:00:34;;;;;;;18.80;8.95;;;2.40;99.90;;;;;;4990278;28;20051;-80
2023/12/07 02:03:00;;;;;;;21.38;10.13;;;;;;;;;;4986313;28;20040;-79
2023/12/07 02:05:26;;;;;;;16.77;9.38;;;;;;;;;;4987818;28;20397;-79
2023/12/07 02:07:53;;;;;;;19.33;8.90;;;;;;;;;;4989570;28;20153;-80
2023/12/07 02:10:19;;;;;;;22.23;9.48;;;;;;;;;;4993263;28;20022;-81
2023/12/07 02:12:46;;;;;;;20.30;8.68;;;;;;;;;;4990565;28;20043;-80
2023/12/07 02:15:12;;;;;;;21.75;9.00;;;;;;;;;;4989824;28;20044;-80
2023/12/07 02:17:51;;;;;;;17.02;8.95;;;;;;;;;;4992583;28;20057;-81
2023/12/07 02:20:22;;;;;;;21.10;9.57;;;;;;;;;;4990231;28;20044;-80
2023/12/07 02:22:58;;;;;;;20.77;8.32;;;2.10;99.90;;;;;;4994877;28;20031;-80
2023/12/07 02:25:26;;;;;;;17.65;8.85;;;;;;;;;;4996481;28;20468;-79
2023/12/07 02:27:52;;;;;;;28.88;10.38;;;;;;;;;;4994853;28;20477;-80
2023/12/07 02:30:18;;;;;;;20.15;10.00;;;;;;;;;;4988602;28;20106;-80
2023/12/07 02:32:45;;;;;;;18.70;9.43;;;;;;;;;;4992166;28;20053;-80
2023/12/07 02:35:15;;;;;;;25.05;8.70;;;2.20;99.90;;;;;;4991132;28;20036;-80
2023/12/07 02:37:45;;;;;;;24.38;10.23;;;;;;;;;;4992450;28;20608;-80
2023/12/07 02:40:14;;;;;;;23.23;11.02;;;;;;;;;;4989503;28;20113;-80
2023/12/07 02:42:42;;;;;;;14.93;7.10;;;;;;;;;;4990414;28;20118;-79
2023/12/07 02:45:09;;;;;;;21.20;9.15;;;;;;;;;;4993774;28;20042;-80
2023/12/07 02:47:35;;;;;;;23.65;10.00;;;;;;;;;;4992476;28;20089;-81
2023/12/07 02:50:01;;;;;;;19.80;9.23;;;;;;;;;;4990463;28;20027;-79
2023/12/07 02:52:28;;;;;;;21.77;10.27;;;;;;;;;;4988553;28;20038;-80
2023/12/07 02:54:54;;;;;;;20.02;8.95;;;;;;;;;;4991168;28;20026;-79
2023/12/07 02:57:20;;;;;;;21.92;9.32;;;;;;;;;;4991571;28;20089;-80
2023/12/07 02:59:46;;;;;;;20.45;9.13;;;;;;;;;;4994620;28;20060;-79
2023/12/07 03:02:12;;;;;;;22.10;9.15;;;;;;;;;;4987592;28;20440;-81
2023/12/07 03:04:38;;;;;;;25.42;11.52;;;;;;;;;;4991285;28;20045;-82
2023/12/07 03:07:04;;;;;;;29.80;13.63;;;;;;;;;;4986246;28;20042;-80
2023/12/07 03:09:30;;;;;;;23.17;8.45;;;;;;;;;;4989168;28;20022;-80
2023/12/07 03:11:56;;;;;;;24.65;10.80;;;;;;;;;;4991490;28;20030;-80
2023/12/07 03:14:22;;;;;;;28.42;10.95;;;;;;;;;;4986714;28;20030;-80
2023/12/07 03:16:48;;;;;;;29.35;11.45;;;;;;;;;;4986369;28;20054;-80
2023/12/07 03:19:14;;;;;;;19.77;9.73;;;;;;;;;;4986129;28;20030;-80
2023/12/07 03:21:40;;;;;;;24.65;10.25;;;;;;;;;;4989828;28;20026;-81
2023/12/07 03:24:08;;;;;;;31.73;12.30;;;;;;;;;;4990869;28;20027;-80
2023/12/07 03:26:34;;;;;;;35.63;13.63;;;;;;;;;;4987930;28;20037;-81
2023/12/07 03:29:00;;;;;;;26.67;11.80;;;;;;;;;;4985797;28;20041;-82
2023/12/07 03:31:26;;;;;;;31.58;12.63;;;;;;;;;;5001510;28;20125;-82
2023/12/07 03:33:51;;;;;;;26.48;12.43;;;;;;;;;;4996944;28;20549;-81
2023/12/07 03:36:17;;;;;;;30.80;13.82;;;;;;;;;;4997396;28;20023;-81
2023/12/07 03:38:43;;;;;;;28.85;13.93;;;;;;;;;;4991915;28;20038;-81
2023/12/07 03:41:09;;;;;;;30.58;13.48;;;;;;;;;;4995512;28;20061;-81
2023/12/07 03:43:35;;;;;;;34.53;13.75;;;;;;;;;;4996096;28;20481;-80
2023/12/07 03:46:04;;;;;;;26.95;12.15;;;;;;;;;;4992201;28;20026;-81
2023/12/07 03:48:30;;;;;;;31.90;13.75;;;;;;;;;;4986954;28;20583;-80
2023/12/07 03:50:56;;;;;;;35.70;15.43;;;;;;;;;;4987947;28;20138;-80
2023/12/07 03:53:22;;;;;;;33.30;15.02;;;;;;;;;;4988398;28;20121;-80
2023/12/07 03:55:48;;;;;;;31.48;12.30;;;;;;;;;;4982067;28;20035;-80
2023/12/07 03:58:14;;;;;;;26.88;12.05;;;;;;;;;;4990576;28;20022;-80
2023/12/07 04:00:41;;;;;;;33.42;13.38;;;;;;;;;;4983080;28;20022;-81
2023/12/07 04:03:07;;;;;;;37.85;15.35;;;;;;;;;;4985669;28;20034;-81
2023/12/07 04:05:33;;;;;;;37.63;17.42;;;2.20;99.90;;;;;;4989227;28;20042;-80
2023/12/07 04:07:59;;;;;;;34.50;15.68;;;;;;;;;;4989757;28;20100;-79
2023/12/07 04:10:25;;;;;;;28.08;14.18;;;;;;;;;;4991477;28;20092;-79
2023/12/07 04:12:52;;;;;;;32.90;13.30;;;;;;;;;;4988673;28;20039;-80
2023/12/07 04:15:18;;;;;;;34.58;11.43;;;;;;;;;;4989722;28;20038;-79
2023/12/07 04:17:44;;;;;;;31.65;12.40;;;;;;;;;;4985043;28;20029;-81
2023/12/07 04:20:11;;;;;;;33.10;12.10;;;;;;;;;;4991278;28;20026;-80
2023/12/07 04:22:37;;;;;;;28.58;12.25;;;;;;;;;;4989321;28;20454;-82
2023/12/07 04:25:03;;;;;;;27.52;12.25;;;;;;;;;;4991562;28;20023;-81
2023/12/07 04:27:29;;;;;;;22.50;9.77;;;;;;;;;;4993458;28;20040;-81
2023/12/07 04:29:55;;;;;;;28.30;12.02;;;;;;;;;;4992811;28;20015;-82
2023/12/07 04:32:20;;;;;;;31.67;11.65;;;;;;;;;;4991031;28;20410;-81
2023/12/07 04:34:46;;;;;;;27.23;10.32;;;;;;;;;;4991910;28;20081;-81
2023/12/07 04:37:12;;;;;;;22.20;11.43;;;;;;;;;;4979647;28;20074;-80
2023/12/07 04:39:38;;;;;;;27.75;12.25;;;;;;;;;;4994197;28;20018;-81
2023/12/07 04:42:04;;;;;;;23.67;10.60;;;;;;;;;;4994213;28;20041;-80
2023/12/07 04:44:30;;;;;;;21.27;10.95;;;;;;;;;;4991765;28;20036;-80
2023/12/07 04:46:56;;;;;;;26.45;11.02;;;;;;;;;;5000222;28;20102;-81
2023/12/07 04:49:22;;;;;;;30.73;11.85;;;;;;;;;;4995112;28;20030;-81
2023/12/07 04:51:48;;;;;;;26.42;10.10;;;;;;;;;;5006001;28;20045;-81
2023/12/07 04:54:14;;;;;;;29.55;11.02;;;;;;;;;;5006545;28;20047;-82
2023/12/07 04:56:43;;;;;;;22.30;11.70;;;;;;;;;;5004372;28;20121;-82
2023/12/07 04:59:10;;;;;;;24.23;9.82;;;;;;;;;;4988210;28;20616;-83
2023/12/07 05:01:36;;;;;;;30.23;14.18;;;;;;;;;;5000103;28;20042;-80
2023/12/07 05:04:03;;;;;;;28.85;13.88;;;;;;;;;;4985999;28;20413;-80
2023/12/07 05:06:29;;;;;;;24.30;11.90;;;;;;;;;;4992068;28;20019;-81
2023/12/07 05:08:55;;;;;;;30.77;11.02;;;;;;;;;;4992247;28;20035;-80
2023/12/07 05:11:21;;;;;;;28.08;10.13;;;;;;;;;;4993637;28;20062;-82
2023/12/07 05:13:47;;;;;;;20.15;10.50;;;;;;;;;;4989471;28;20493;-82
2023/12/07 05:16:14;;;;;;;36.00;15.18;;;;;;;;;;4993501;28;20031;-81
2023/12/07 05:18:40;;;;;;;25.65;12.10;;;;;;;;;;4989800;28;20030;-81
2023/12/07 05:21:06;;;;;;;19.77;10.05;;;;;;;;;;4994273;28;20046;-82
2023/12/07 05:23:32;;;;;;;29.13;10.27;;;;;;;;;;4990572;28;20070;-79
2023/12/07 05:25:58;;;;;;;24.40;11.68;;;;;;;;;;4988129;28;20042;-79
2023/12/07 05:28:25;;;;;;;32.85;12.85;;;;;;;;;;4991695;28;20025;-80
2023/12/07 05:30:51;;;;;;;23.35;9.93;;;;;;;;;;4991990;28;20049;-81
2023/12/07 05:33:19;;;;;;;23.17;11.13;;;;;;;;;;4987571;28;20067;-80
2023/12/07 05:35:45;;;;;;;21.60;10.68;;;;;;;;;;4989208;28;20504;-80
2023/12/07 05:38:11;;;;;;;24.55;9.95;;;;;;;;;;4994429;28;20030;-81
2023/12/07 05:40:37;;;;;;;27.45;10.40;;;;;;;;;;4992683;28;20027;-82
2023/12/07 05:43:03;;;;;;;18.05;9.07;;;;;;;;;;4995029;28;20049;-81
2023/12/07 05:45:30;;;;;;;30.52;11.02;;;;;;;;;;4987818;28;20393;-81
2023/12/07 05:47:56;;;;;;;24.48;11.90;;;;;;;;;;4989478;28;20030;-82
2023/12/07 05:50:22;;;;;;;26.55;11.13;;;;;;;;;;4972333;28;20034;-83
2023/12/07 05:52:48;;;;;;;23.77;10.73;;;;;;;;;;4988031;28;20042;-80
2023/12/07 05:55:14;;;;;;;21.35;9.13;;;;;;;;;;4988742;28;20026;-81
2023/12/07 05:57:40;;;;;;;32.08;11.02;;;;;;;;;;4987393;28;20109;-82
2023/12/07 06:00:10;;;;;;;20.67;9.98;;;;;;;;;;4987428;28;20560;-81
2023/12/07 06:02:36;;;;;;;17.67;9.48;;;;;;;;;;4995270;28;20027;-81
2023/12/07 06:05:04;;;;;;;24.45;10.73;;;;;;;;;;4992079;28;20027;-81
2023/12/07 06:07:30;;;;;;;20.50;9.40;;;;;;;;;;4991316;28;20041;-81
2023/12/07 06:09:56;;;;;;;17.58;8.60;;;;;;;;;;4990845;28;20022;-80
2023/12/07 06:12:22;;;;;;;26.33;9.95;;;;;;;;;;4986756;28;20058;-80
2023/12/07 06:14:49;;;;;;;22.63;9.35;;;;;;;;;;4987142;28;20084;-80
2023/12/07 06:17:15;;;;;;;26.73;10.02;;;;;;;;;;4991877;28;20045;-80
2023/12/07 06:19:42;;;;;;;18.58;7.90;;;;;;;;;;5003984;28;20031;-81
2023/12/07 06:22:08;;;;;;;20.73;8.95;;;;;;;;;;5003070;28;20026;-80
2023/12/07 06:24:35;;;;;;;31.20;10.25;;;;;;;;;;4991431;28;20049;-81
2023/12/07 06:27:01;;;;;;;17.40;8.70;;;;;;;;;;4986053;28;20027;-80
2023/12/07 06:29:28;;;;;;;24.90;9.57;;;;;;;;;;4991658;28;20034;-79
2023/12/07 06:31:54;;;;;;;47.55;16.92;;;;;;;;;;4991773;28;20058;-80
2023/12/07 06:34:20;;;;;;;30.88;11.95;;;;;;;;;;4990818;28;20050;-80
2023/12/07 06:36:47;;;;;;;25.95;10.77;;;;;;;;;;4992020;28;20026;-80
2023/12/07 06:39:13;;;;;;;34.00;14.32;;;;;;;;;;4998894;28;20090;-81
2023/12/07 06:41:39;;;;;;;27.05;12.25;;;;;;;;;;4998592;28;20030;-82
2023/12/07 06:44:06;;;;;;;24.27;11.02;;;;;;;;;;4990757;28;20112;-81
2023/12/07 06:46:32;;;;;;;37.22;12.40;;;;;;;;;;4994826;28;20030;-80
2023/12/07 06:48:58;;;;;;;19.50;8.80;;;;;;;;;;4981920;28;20014;-80
2023/12/07 06:51:24;;;;;;;20.83;8.65;;;;;;;;;;4987594;28;20040;-80
2023/12/07 06:53:50;;;;;;;21.17;7.93;;;;;;;;;;4996494;28;20029;-81
2023/12/07 06:56:16;;;;;;;24.90;9.45;;;;;;;;;;4968227;28;20031;-82
2023/12/07 06:58:42;;;;;;;15.18;8.15;;;2.30;99.90;;;;;;4987829;28;20157;-78
2023/12/07 07:01:08;;;;;;;15.02;7.03;;;;;;;;;;4998391;28;20421;-78
2023/12/07 07:03:35;;;;;;;20.60;9.25;;;;;;;;;;4996904;28;20050;-81
2023/12/07 07:06:01;;;;;;;16.27;8.15;;;;;;;;;;4969282;28;20536;-81
2023/12/07 07:08:27;;;;;;;19.45;7.65;;;;;;;;;;4992789;28;20789;-81
2023/12/07 07:10:53;;;;;;;19.65;8.68;;;;;;;;;;4989965;28;20073;-81
2023/12/07 07:13:20;;;;;;;26.30;10.25;;;;;;;;;;4989719;28;20029;-78
2023/12/07 07:15:47;;;;;;;22.20;9.35;;;;;;;;;;4986505;28;20030;-81
2023/12/07 07:18:14;;;;;;;23.55;8.93;;;;;;;;;;4994648;28;20023;-81
2023/12/07 07:20:40;;;;;;;26.02;9.20;;;;;;;;;;4993126;28;20030;-83
2023/12/07 07:23:07;;;;;;;18.40;8.77;;;;;;;;;;4972488;28;20031;-81
2023/12/07 07:25:34;;;;;;;17.38;8.88;;;;;;;;;;4989840;28;20026;-82
2023/12/07 07:28:00;;;;;;;19.83;10.23;;;;;;;;;;4986755;28;20034;-81
2023/12/07 07:30:26;;;;;;;16.88;9.07;;;;;;;;;;4984324;28;20026;-81
2023/12/07 07:32:52;;;;;;;20.92;8.75;;;;;;;;;;4986054;28;20493;-81
2023/12/07 07:35:18;;;;;;;15.63;7.90;;;;;;;;;;4992145;28;20026;-81
2023/12/07 07:37:46;;;;;;;22.95;8.90;;;;;;;;;;4991013;28;20403;-83
2023/12/07 07:40:12;;;;;;;20.38;9.18;;;;;;;;;;4986954;28;20484;-81
2023/12/07 07:42:42;;;;;;;18.35;7.93;;;;;;;;;;4986636;28;20038;-82
2023/12/07 07:45:08;;;;;;;17.45;8.13;;;2.80;99.90;;;;;;4988530;28;20030;-81
2023/12/07 07:47:34;;;;;;;18.50;8.57;;;;;;;;;;4986499;28;20030;-82
2023/12/07 07:50:05;;;;;;;25.02;10.82;;;;;;;;;;4990531;28;20046;-82
2023/12/07 07:52:31;;;;;;;18.67;8.07;;;;;;;;;;4993180;28;20084;-81
2023/12/07 07:54:57;;;;;;;18.58;9.48;;;;;;;;;;4971446;28;20392;-82
2023/12/07 07:57:23;;;;;;;24.15;9.90;;;;;;;;;;4997195;28;20145;-82
2023/12/07 07:59:48;;;;;;;20.73;8.82;;;;;;;;;;4993380;28;20041;-82
2023/12/07 08:02:14;;;;;;;33.42;11.45;;;;;;;;;;4993385;28;20025;-82
2023/12/07 08:04:40;;;;;;;23.40;10.57;;;;;;;;;;4992249;28;20026;-82
2023/12/07 08:07:07;;;;;;;21.17;8.65;;;;;;;;;;4993627;28;20121;-81
2023/12/07 08:09:33;;;;;;;21.55;9.65;;;;;;;;;;4992877;28;20042;-81
2023/12/07 08:11:59;;;;;;;20.77;9.32;;;;;;;;;;4997101;28;20034;-81
2023/12/07 08:14:25;;;;;;;21.77;8.82;;;;;;;;;;4999163;28;20048;-81
2023/12/07 08:16:51;;;;;;;24.83;10.23;;;;;;;;;;4991799;28;20053;-80
2023/12/07 08:19:17;;;;;;;22.50;9.30;;;;;;;;;;4997295;28;20027;-80
2023/12/07 08:21:43;;;;;;;21.00;9.68;;;;;;;;;;4997340;28;20842;-80
2023/12/07 08:24:09;;;;;;;23.58;9.75;;;;;;;;;;4998005;28;20023;-79
2023/12/07 08:26:35;;;;;;;21.05;9.23;;;;;;;;;;4992868;28;20038;-79
2023/12/07 08:29:01;;;;;;;18.63;8.88;;;;;;;;;;4987950;28;20145;-80
2023/12/07 08:31:27;;;;;;;25.10;10.02;;;;;;;;;;4996895;28;20101;-79
2023/12/07 08:33:53;;;;;;;21.25;9.55;;;;;;;;;;4991553;28;20031;-79
2023/12/07 08:36:19;;;;;;;21.98;10.23;;;;;;;;;;4990085;28;20030;-80
2023/12/07 08:38:45;;;;;;;25.00;9.43;;;;;;;;;;4992690;28;20370;-79
2023/12/07 08:41:11;;;;;;;22.85;9.98;;;;;;;;;;4989500;28;20638;-80
2023/12/07 08:43:37;;;;;;;27.95;11.18;;;;;;;;;;4971316;28;21395;-79
2023/12/07 08:46:04;;;;;;;27.48;10.93;;;;;;;;;;4989936;28;20077;-82
2023/12/07 08:48:30;;;;;;;17.45;9.10;;;;;;;;;;4986018;28;20022;-82
2023/12/07 08:50:56;;;;;;;25.38;10.05;;;;;;;;;;4975759;28;20485;-80
2023/12/07 08:53:22;;;;;;;24.17;10.63;;;;;;;;;;4978521;28;20089;-79
2023/12/07 08:55:48;;;;;;;21.80;8.88;;;;;;;;;;4985516;28;20038;-79
2023/12/07 08:58:14;;;;;;;21.98;9.55;;;;;;;;;;4963135;28;20096;-80
2023/12/07 09:00:40;;;;;;;28.63;11.00;;;;;;;;;;4984670;28;20030;-82
2023/12/07 10:58:25;;;;;;;15.63;5.47;;;;;;;;;;5096465;27;20411;-79
2023/12/07 11:00:52;;;;;;;10.57;5.75;;;;;;;;;;5075188;28;20621;-79
2023/12/07 11:03:18;;;;;;;8.52;4.75;;;;;;;;;;5075667;28;20389;-79
2023/12/07 11:05:47;;;;;;;9.23;5.05;;;;;;;;;;5071198;28;20467;-79
2023/12/07 11:08:32;;;;;;;9.88;5.15;;;;;;;;;;5083114;28;20035;-79
2023/12/07 11:11:21;;;;;;;7.90;4.80;;;4.70;99.90;;;;;;5086248;28;20032;-79
2023/12/07 11:13:57;;;;;;;8.55;4.15;;;4.60;99.90;;;;;;5073965;28;20036;-80
2023/12/07 11:16:33;;;;;;;14.40;4.68;;;;;;;;;;5070386;28;20033;-79
2023/12/07 11:18:59;;;;;;;13.15;5.13;;;;;;;;;;5080037;28;20115;-79
2023/12/07 11:21:25;;;;;;;8.98;3.92;;;;;;;;;;5079187;28;20120;-79
2023/12/07 11:23:53;;;;;;;7.20;4.30;;;;;;;;;;5083335;28;20108;-79
2023/12/07 11:26:20;;;;;;;8.70;4.38;;;;;;;;;;5102780;28;20036;-78
2023/12/07 11:28:46;;;;;;;8.43;5.03;;;;;;;;;;5095927;28;20039;-79
2023/12/07 11:31:13;;;;;;;10.20;4.32;;;;;;;;;;5086130;28;20024;-79
2023/12/07 11:33:39;;;;;;;11.57;4.53;;;;;;;;;;5088199;28;20066;-79
2023/12/07 11:36:06;;;;;;;9.05;4.93;;;;;;;;;;5072414;28;20287;-79
2023/12/07 11:38:32;;;;;;;10.98;5.57;;;;;;;;;;5077059;28;20435;-79
2023/12/07 11:40:58;;;;;;;15.50;5.68;;;;;;;;;;5078120;28;20028;-80
2023/12/07 11:43:30;;;;;;;11.95;4.55;;;;;;;;;;5079667;28;20439;-79
2023/12/07 11:45:58;;;;;;;11.50;4.43;;;;;;;;;;5079200;28;20028;-80
2023/12/07 11:48:24;;;;;;;6.35;3.63;;;;;;;;;;5084281;28;20028;-79
2023/12/07 11:50:58;;;;;;;11.32;4.72;;;;;;;;;;5067742;28;20020;-79
2023/12/07 11:53:25;;;;;;;10.65;4.78;;;;;;;;;;5079353;28;20025;-79
2023/12/07 11:55:51;;;;;;;7.20;4.97;;;;;;;;;;5074539;28;20465;-80
2023/12/07 11:58:18;;;;;;;10.75;4.53;;;;;;;;;;5071380;28;20045;-79
2023/12/07 12:00:46;;;;;;;9.52;4.60;;;;;;;;;;5064334;28;20032;-79
2023/12/07 12:03:12;;;;;;;10.27;5.57;;;;;;;;;;5066147;28;20025;-79
2023/12/07 12:05:40;;;;;;;12.90;6.20;;;;;;;;;;5063349;28;20036;-80
2023/12/07 12:08:06;;;;;;;10.27;5.53;;;;;;;;;;5065516;28;20515;-79
2023/12/07 12:10:32;;;;;;;10.55;4.70;;;;;;;;;;5063749;28;20032;-79
2023/12/07 12:12:58;;;;;;;9.73;3.92;;;;;;;;;;5061587;28;20079;-79
2023/12/07 12:15:24;;;;;;;7.75;4.00;;;;;;;;;;5062577;28;20029;-79
2023/12/07 12:17:50;;;;;;;9.77;4.90;;;;;;;;;;5064646;28;21515;-79
2023/12/07 12:20:18;;;;;;;12.93;5.07;;;5.70;99.90;;;;;;5063633;28;20052;-79
2023/12/07 12:22:44;;;;;;;11.00;4.60;;;;;;;;;;5064789;28;20033;-79
2023/12/07 12:25:10;;;;;;;16.73;7.32;;;5.80;99.90;;;;;;5064263;28;20033;-79
2023/12/07 12:27:36;;;;;;;11.52;6.30;;;;;;;;;;5064646;28;20390;-80
2023/12/07 12:30:03;;;;;;;11.57;5.18;;;;;;;;;;5056015;28;20028;-79
2023/12/07 12:32:42;;;;;;;9.73;4.95;;;;;;;;;;5074105;28;20027;-79
2023/12/07 12:35:09;;;;;;;15.02;6.72;;;;;;;;;;5065655;28;20057;-79
2023/12/07 12:37:35;;;;;;;11.85;5.50;;;;;;;;;;5065623;28;20024;-79
2023/12/07 12:40:06;;;;;;;16.42;6.30;;;;;;;;;;5064179;28;20425;-79
2023/12/07 12:42:32;;;;;;;11.68;6.00;;;;;;;;;;5063306;28;20144;-78
2023/12/07 12:44:58;;;;;;;12.38;6.43;;;;;;;;;;5065920;28;20130;-78
2023/12/07 12:47:24;;;;;;;10.38;5.22;;;;;;;;;;5060995;28;20039;-79
2023/12/07 12:49:50;;;;;;;22.50;6.18;;;;;;;;;;5059590;28;20033;-79
2023/12/07 12:52:16;;;;;;;11.52;6.03;;;;;;;;;;5063164;28;20057;-79
2023/12/07 12:54:46;;;;;;;20.20;7.60;;;;;;;;;;5047508;28;20122;-79
2023/12/07 12:57:13;;;;;;;12.82;5.93;;;;;;;;;;5064404;28;20128;-78
2023/12/07 12:59:39;;;;;;;12.85;6.15;;;;;;;;;;5067214;28;20087;-78
2023/12/07 13:02:05;;;;;;;11.77;5.93;;;;;;;;;;5063556;28;20394;-79
2023/12/07 13:04:33;;;;;;;17.58;7.35;;;;;;;;;;5059061;28;20035;-79
2023/12/07 13:07:00;;;;;;;12.73;6.85;;;;;;;;;;5055408;28;20498;-79
2023/12/07 13:09:26;;;;;;;12.18;5.78;;;;;;;;;;5062936;28;20029;-79
2023/12/07 13:11:52;;;;;;;11.88;5.53;;;;;;;;;;5059980;28;20029;-79
2023/12/07 13:14:18;;;;;;;11.73;5.20;;;;;;;;;;5066852;28;20130;-79
2023/12/07 13:16:44;;;;;;;20.10;8.65;;;;;;;;;;5068482;28;20044;-79
2023/12/07 13:19:10;;;;;;;14.20;6.93;;;;;;;;;;5063559;28;20081;-78
2023/12/07 13:21:36;;;;;;;15.70;6.43;;;;;;;;;;5059865;28;20025;-79
2023/12/07 13:24:04;;;;;;;9.98;5.63;;;;;;;;;;5063153;28;20124;-79
2023/12/07 13:26:30;;;;;;;17.30;6.38;;;;;;;;;;5069869;28;20486;-79
2023/12/07 13:28:56;;;;;;;12.32;6.25;;;;;;;;;;5071006;28;20036;-79
2023/12/07 13:31:23;;;;;;;9.65;5.45;;;;;;;;;;5056002;28;20028;-79
2023/12/07 13:33:49;;;;;;;14.88;5.40;;;;;;;;;;5059966;28;20033;-79
2023/12/07 13:36:17;;;;;;;15.13;6.50;;;;;;;;;;5060464;28;20367;-79
2023/12/07 13:38:44;;;;;;;15.75;7.28;;;;;;;;;;5068837;28;20035;-79
2023/12/07 13:41:10;;;;;;;12.25;6.18;;;;;;;;;;5063518;28;20035;-78
2023/12/07 13:43:36;;;;;;;16.92;7.13;;;;;;;;;;5061693;28;20025;-79
2023/12/07 13:46:02;;;;;;;17.02;7.05;;;;;;;;;;5066366;28;20020;-78
2023/12/07 13:48:28;;;;;;;16.10;6.57;;;;;;;;;;5064998;28;20438;-79
2023/12/07 13:50:54;;;;;;;20.73;8.07;;;;;;;;;;5064877;28;20035;-79
2023/12/07 13:53:21;;;;;;;17.85;6.32;;;;;;;;;;5061399;28;20048;-80
2023/12/07 13:55:47;;;;;;;17.13;7.30;;;;;;;;;;5063334;28;20036;-79
2023/12/07 13:58:13;;;;;;;19.95;7.97;;;;;;;;;;5061017;28;20064;-79
2023/12/07 14:00:39;;;;;;;16.45;6.60;;;;;;;;;;5062398;28;20098;-79
2023/12/07 14:03:06;;;;;;;23.30;8.95;;;;;;;;;;5066874;28;20020;-79
2023/12/07 14:05:32;;;;;;;13.50;6.90;;;;;;;;;;5077418;28;20040;-78
2023/12/07 14:07:58;;;;;;;19.38;7.47;;;;;;;;;;5074570;28;20083;-79
2023/12/07 14:10:24;;;;;;;22.20;8.90;;;;;;;;;;5065090;28;20025;-79
2023/12/07 14:12:50;;;;;;;21.20;8.50;;;;;;;;;;5068498;28;20032;-79
2023/12/07 14:15:16;;;;;;;16.60;7.75;;;;;;;;;;5062350;28;20418;-79
2023/12/07 14:17:42;;;;;;;16.70;8.70;;;;;;;;;;5060531;28;20048;-79
2023/12/07 14:20:08;;;;;;;26.70;9.43;;;;;;;;;;5058375;28;20021;-79
2023/12/07 14:22:35;;;;;;;22.75;8.68;;;;;;;;;;5058894;28;20021;-80
2023/12/07 14:25:01;;;;;;;21.50;8.85;;;;;;;;;;5065079;28;20029;-78
2023/12/07 14:27:27;;;;;;;16.55;8.02;;;;;;;;;;5057058;28;20024;-79
2023/12/07 14:29:53;;;;;;;13.85;7.80;;;;;;;;;;5060240;28;20044;-78
2023/12/07 14:32:19;;;;;;;11.25;6.43;;;;;;;;;;5061588;28;20025;-79
2023/12/07 14:34:45;;;;;;;15.20;7.72;;;;;;;;;;5064415;28;20071;-79
2023/12/07 14:37:11;;;;;;;23.45;8.75;;;;;;;;;;5057664;28;20024;-79
2023/12/07 14:39:39;;;;;;;30.30;12.60;;;3.70;99.90;;;;;;5062870;28;20493;-79
2023/12/07 14:42:05;;;;;;;31.83;11.65;;;;;;;;;;5064004;28;20274;-79
2023/12/07 14:44:31;;;;;;;20.67;8.27;;;;;;;;;;5066001;28;20045;-79
2023/12/07 14:46:57;;;;;;;17.83;8.65;;;;;;;;;;5064286;28;20024;-80
2023/12/07 14:49:23;;;;;;;16.55;8.13;;;;;;;;;;5064659;28;20025;-79
2023/12/07 14:51:49;;;;;;;19.88;8.90;;;2.90;99.90;;;;;;5061362;28;20066;-79
2023/12/07 14:54:16;;;;;;;26.52;9.60;;;;;;;;;;5064837;28;20033;-79
2023/12/07 14:56:43;;;;;;;18.42;8.70;;;;;;;;;;5060295;28;20531;-80
2023/12/07 14:59:10;;;;;;;29.88;9.80;;;;;;;;;;5069256;28;20025;-79
2023/12/07 15:01:38;;;;;;;25.58;10.10;;;;;;;;;;5064043;28;20033;-79
2023/12/07 15:04:04;;;;;;;15.65;7.28;;;;;;;;;;5069697;28;20044;-79
2023/12/07 15:06:31;;;;;;;16.48;7.78;;;;;;;;;;5058258;28;20032;-79
2023/12/07 15:08:57;;;;;;;14.18;7.82;;;;;;;;;;5056405;28;20510;-79
2023/12/07 15:11:23;;;;;;;14.77;7.35;;;;;;;;;;5065926;28;20052;-78
2023/12/07 15:13:49;;;;;;;19.90;7.40;;;;;;;;;;5063244;28;20028;-79
2023/12/07 15:16:15;;;;;;;14.60;6.75;;;;;;;;;;5062034;28;20032;-79
2023/12/07 15:18:45;;;;;;;15.73;7.70;;;;;;;;;;5059513;28;20032;-79
2023/12/07 15:21:12;;;;;;;28.63;9.25;;;;;;;;;;5061849;28;20495;-79
2023/12/07 15:23:39;;;;;;;15.30;6.93;;;;;;;;;;5063042;28;20024;-79
2023/12/07 15:26:05;;;;;;;16.35;8.30;;;;;;;;;;5063970;28;20024;-79
2023/12/07 15:28:31;;;;;;;45.33;14.68;;;;;;;;;;5063833;28;20021;-79
2023/12/07 15:30:57;;;;;;;38.00;13.85;;;;;;;;;;5058527;28;20036;-79
2023/12/07 15:33:23;;;;;;;27.88;12.73;;;;;;;;;;5067140;28;20489;-78
2023/12/07 15:35:49;;;;;;;23.75;9.95;;;;;;;;;;5065188;28;20025;-79
2023/12/07 15:38:15;;;;;;;17.15;8.55;;;;;;;;;;5066671;28;20023;-79
2023/12/07 15:40:41;;;;;;;17.08;8.23;;;;;;;;;;5055774;28;20016;-79
2023/12/07 15:43:07;;;;;;;19.25;9.02;;;;;;;;;;5063806;28;20553;-79
2023/12/07 15:45:33;;;;;;;16.75;8.55;;;;;;;;;;5063494;28;20032;-79
2023/12/07 15:47:59;;;;;;;16.95;8.57;;;;;;;;;;5064399;28;20028;-79
2023/12/07 15:50:25;;;;;;;15.23;7.10;;;;;;;;;;5069461;28;20028;-79
2023/12/07 15:52:51;;;;;;;21.73;8.13;;;;;;;;;;5065022;28;20024;-79
2023/12/07 15:55:17;;;;;;;25.08;7.85;;;;;;;;;;5065198;28;20032;-79
2023/12/07 15:57:43;;;;;;;18.73;8.77;;;;;;;;;;5070980;28;20126;-79
2023/12/07 16:00:10;;;;;;;16.30;7.07;;;;;;;;;;5061583;28;20105;-78
2023/12/07 16:02:36;;;;;;;17.90;6.82;;;;;;;;;;5066238;28;20033;-79
2023/12/07 16:05:06;;;;;;;12.00;6.43;;;;;;;;;;5062572;28;20037;-79
2023/12/07 16:07:32;;;;;;;20.10;8.70;;;;;;;;;;5057485;28;20033;-79
2023/12/07 16:09:58;;;;;;;13.95;7.68;;;;;;;;;;5060816;28;20033;-80
2023/12/07 16:12:24;;;;;;;22.42;8.20;;;;;;;;;;5059155;28;20028;-78
2023/12/07 16:14:55;;;;;;;13.50;7.82;;;;;;;;;;5056518;28;20089;-79